Armstrong, Florida
Current Conditions -  °F | °C
As of 10:58 AM on Saturday 20 Dec 2014 (Local Time) from KSGJ Reporting Station
Broken Clouds Broken Clouds  
Wind Chill: 66°   Ceiling: 10000
Heat Index: 66°   Visibility: 10mi
Dew Point: 55°   Wind: 12mph
Humidity: 68%   Direction: 10°N
Pressure: 30.15"   Gusts: NA
Location:  29.7919°N, 81.4499°W
Report Text: KSGJ 201558Z 01010KT 10SM BKN100 19/13 A3015 RMK AO2 SLP210 T01890128
Loading
Personal Weather Stations






























Interactive Weather Map New forecast layout! Learn more

10-Day Weather Forecast

Advertisements
Track Severe Weather on mobile